sensor_id;sensor_type;location;lat;lon;timestamp;P1;durP1;ratioP1;P2;durP2;ratioP2
68140;SDS011;54941;52.220;104.306;2023-06-26T00:00:52;5.22;;;1.40;;
68140;SDS011;54941;52.220;104.306;2023-06-26T00:03:18;1.80;;;0.70;;
68140;SDS011;54941;52.220;104.306;2023-06-26T00:05:44;2.42;;;0.55;;
68140;SDS011;54941;52.220;104.306;2023-06-26T00:08:11;1.33;;;0.40;;
68140;SDS011;54941;52.220;104.306;2023-06-26T00:10:39;0.95;;;0.30;;
68140;SDS011;54941;52.220;104.306;2023-06-26T00:13:05;1.10;;;0.30;;
68140;SDS011;54941;52.220;104.306;2023-06-26T00:15:31;1.25;;;0.30;;
68140;SDS011;54941;52.220;104.306;2023-06-26T00:17:58;1.35;;;0.50;;
68140;SDS011;54941;52.220;104.306;2023-06-26T00:20:24;0.98;;;0.32;;
68140;SDS011;54941;52.220;104.306;2023-06-26T00:22:50;1.15;;;0.30;;
68140;SDS011;54941;52.220;104.306;2023-06-26T00:25:18;2.38;;;0.40;;
68140;SDS011;54941;52.220;104.306;2023-06-26T00:27:46;1.65;;;0.63;;
68140;SDS011;54941;52.220;104.306;2023-06-26T00:30:13;3.75;;;1.10;;
68140;SDS011;54941;52.220;104.306;2023-06-26T00:32:39;3.10;;;1.20;;
68140;SDS011;54941;52.220;104.306;2023-06-26T00:35:05;5.47;;;1.40;;
68140;SDS011;54941;52.220;104.306;2023-06-26T00:37:32;4.57;;;1.50;;
68140;SDS011;54941;52.220;104.306;2023-06-26T00:39:58;3.40;;;1.38;;
68140;SDS011;54941;52.220;104.306;2023-06-26T00:42:25;3.28;;;1.10;;
68140;SDS011;54941;52.220;104.306;2023-06-26T00:44:53;3.17;;;1.20;;
68140;SDS011;54941;52.220;104.306;2023-06-26T00:47:19;3.10;;;1.20;;
68140;SDS011;54941;52.220;104.306;2023-06-26T00:49:46;4.28;;;1.08;;
68140;SDS011;54941;52.220;104.306;2023-06-26T00:52:12;3.28;;;1.10;;
68140;SDS011;54941;52.220;104.306;2023-06-26T00:54:38;4.53;;;1.30;;
68140;SDS011;54941;52.220;104.306;2023-06-26T00:57:05;3.95;;;1.10;;
68140;SDS011;54941;52.220;104.306;2023-06-26T00:59:32;3.63;;;0.93;;
68140;SDS011;54941;52.220;104.306;2023-06-26T01:02:00;3.78;;;1.10;;
68140;SDS011;54941;52.220;104.306;2023-06-26T01:04:26;2.97;;;1.20;;
68140;SDS011;54941;52.220;104.306;2023-06-26T01:06:53;4.13;;;1.23;;
68140;SDS011;54941;52.220;104.306;2023-06-26T01:09:21;6.22;;;1.00;;
68140;SDS011;54941;52.220;104.306;2023-06-26T01:11:48;5.63;;;1.52;;
68140;SDS011;54941;52.220;104.306;2023-06-26T01:14:15;5.80;;;1.40;;
68140;SDS011;54941;52.220;104.306;2023-06-26T01:16:42;4.95;;;1.42;;
68140;SDS011;54941;52.220;104.306;2023-06-26T01:19:11;4.70;;;1.25;;
68140;SDS011;54941;52.220;104.306;2023-06-26T01:21:42;6.50;;;1.23;;
68140;SDS011;54941;52.220;104.306;2023-06-26T01:26:42;3.17;;;1.10;;
68140;SDS011;54941;52.220;104.306;2023-06-26T01:29:10;4.03;;;1.38;;
68140;SDS011;54941;52.220;104.306;2023-06-26T01:31:38;2.75;;;0.93;;
68140;SDS011;54941;52.220;104.306;2023-06-26T01:34:05;2.92;;;0.70;;
68140;SDS011;54941;52.220;104.306;2023-06-26T01:36:32;3.08;;;0.68;;
68140;SDS011;54941;52.220;104.306;2023-06-26T01:38:59;4.38;;;0.80;;
68140;SDS011;54941;52.220;104.306;2023-06-26T01:41:25;2.55;;;1.00;;
68140;SDS011;54941;52.220;104.306;2023-06-26T01:44:01;2.13;;;0.70;;
68140;SDS011;54941;52.220;104.306;2023-06-26T01:46:39;1.50;;;0.63;;
68140;SDS011;54941;52.220;104.306;2023-06-26T01:49:09;1.40;;;0.50;;
68140;SDS011;54941;52.220;104.306;2023-06-26T01:51:42;2.15;;;0.60;;
68140;SDS011;54941;52.220;104.306;2023-06-26T01:54:13;1.60;;;0.50;;
68140;SDS011;54941;52.220;104.306;2023-06-26T01:56:43;2.50;;;0.57;;
68140;SDS011;54941;52.220;104.306;2023-06-26T01:59:14;1.45;;;0.50;;
68140;SDS011;54941;52.220;104.306;2023-06-26T02:01:41;6.68;;;3.10;;
68140;SDS011;54941;52.220;104.306;2023-06-26T02:04:07;3.95;;;1.00;;
68140;SDS011;54941;52.220;104.306;2023-06-26T02:06:33;3.70;;;1.35;;
68140;SDS011;54941;52.220;104.306;2023-06-26T02:09:00;5.03;;;1.20;;
68140;SDS011;54941;52.220;104.306;2023-06-26T02:11:26;5.22;;;1.13;;
68140;SDS011;54941;52.220;104.306;2023-06-26T02:13:52;3.92;;;0.90;;
68140;SDS011;54941;52.220;104.306;2023-06-26T02:16:20;5.80;;;1.10;;
68140;SDS011;54941;52.220;104.306;2023-06-26T02:18:47;3.47;;;1.10;;
68140;SDS011;54941;52.220;104.306;2023-06-26T02:21:33;7.05;;;1.30;;
68140;SDS011;54941;52.220;104.306;2023-06-26T02:23:59;3.90;;;1.70;;
68140;SDS011;54941;52.220;104.306;2023-06-26T02:26:26;9.10;;;2.17;;
68140;SDS011;54941;52.220;104.306;2023-06-26T02:28:52;8.52;;;1.77;;
68140;SDS011;54941;52.220;104.306;2023-06-26T02:31:18;5.78;;;1.52;;
68140;SDS011;54941;52.220;104.306;2023-06-26T02:33:46;5.82;;;1.50;;
68140;SDS011;54941;52.220;104.306;2023-06-26T02:36:12;3.65;;;1.52;;
68140;SDS011;54941;52.220;104.306;2023-06-26T02:38:39;5.93;;;1.50;;
68140;SDS011;54941;52.220;104.306;2023-06-26T02:41:05;7.78;;;1.65;;
68140;SDS011;54941;52.220;104.306;2023-06-26T02:43:31;7.72;;;1.63;;
68140;SDS011;54941;52.220;104.306;2023-06-26T02:45:58;4.13;;;1.63;;
68140;SDS011;54941;52.220;104.306;2023-06-26T02:48:25;4.00;;;1.55;;
68140;SDS011;54941;52.220;104.306;2023-06-26T02:50:52;4.28;;;1.13;;
68140;SDS011;54941;52.220;104.306;2023-06-26T02:53:18;3.45;;;0.77;;
68140;SDS011;54941;52.220;104.306;2023-06-26T02:55:44;1.60;;;0.73;;
68140;SDS011;54941;52.220;104.306;2023-06-26T02:58:11;2.25;;;1.00;;
68140;SDS011;54941;52.220;104.306;2023-06-26T03:00:37;3.38;;;0.70;;
68140;SDS011;54941;52.220;104.306;2023-06-26T03:03:04;2.33;;;0.80;;
68140;SDS011;54941;52.220;104.306;2023-06-26T03:05:31;1.50;;;0.60;;
68140;SDS011;54941;52.220;104.306;2023-06-26T03:07:58;1.90;;;0.60;;
68140;SDS011;54941;52.220;104.306;2023-06-26T03:10:24;1.98;;;0.60;;
68140;SDS011;54941;52.220;104.306;2023-06-26T03:12:50;1.92;;;0.60;;
68140;SDS011;54941;52.220;104.306;2023-06-26T03:15:17;3.70;;;0.40;;
68140;SDS011;54941;52.220;104.306;2023-06-26T03:17:43;2.60;;;0.70;;
68140;SDS011;54941;52.220;104.306;2023-06-26T03:20:09;2.55;;;0.63;;
68140;SDS011;54941;52.220;104.306;2023-06-26T03:22:37;3.40;;;0.40;;
68140;SDS011;54941;52.220;104.306;2023-06-26T03:25:04;1.40;;;0.55;;
68140;SDS011;54941;52.220;104.306;2023-06-26T03:27:31;1.30;;;0.50;;
68140;SDS011;54941;52.220;104.306;2023-06-26T03:29:57;1.60;;;0.60;;
68140;SDS011;54941;52.220;104.306;2023-06-26T03:32:24;1.23;;;0.40;;
68140;SDS011;54941;52.220;104.306;2023-06-26T03:34:50;2.78;;;0.55;;
68140;SDS011;54941;52.220;104.306;2023-06-26T03:37:16;1.40;;;0.55;;
68140;SDS011;54941;52.220;104.306;2023-06-26T03:39:44;1.20;;;0.40;;
68140;SDS011;54941;52.220;104.306;2023-06-26T03:42:10;1.25;;;0.47;;
68140;SDS011;54941;52.220;104.306;2023-06-26T03:44:37;1.38;;;0.40;;
68140;SDS011;54941;52.220;104.306;2023-06-26T03:47:03;1.73;;;0.50;;
68140;SDS011;54941;52.220;104.306;2023-06-26T03:49:30;1.50;;;0.70;;
68140;SDS011;54941;52.220;104.306;2023-06-26T03:51:58;1.50;;;0.50;;
68140;SDS011;54941;52.220;104.306;2023-06-26T03:54:24;1.55;;;0.65;;
68140;SDS011;54941;52.220;104.306;2023-06-26T03:56:52;1.55;;;0.63;;
68140;SDS011;54941;52.220;104.306;2023-06-26T03:59:18;3.00;;;0.60;;
68140;SDS011;54941;52.220;104.306;2023-06-26T04:01:44;1.85;;;0.90;;
68140;SDS011;54941;52.220;104.306;2023-06-26T04:04:11;2.97;;;0.70;;
68140;SDS011;54941;52.220;104.306;2023-06-26T04:06:37;2.88;;;0.60;;
68140;SDS011;54941;52.220;104.306;2023-06-26T04:09:03;2.03;;;0.75;;
68140;SDS011;54941;52.220;104.306;2023-06-26T04:11:30;1.75;;;0.60;;
68140;SDS011;54941;52.220;104.306;2023-06-26T04:13:57;2.55;;;0.70;;
68140;SDS011;54941;52.220;104.306;2023-06-26T04:16:24;1.45;;;0.60;;
68140;SDS011;54941;52.220;104.306;2023-06-26T04:18:51;1.27;;;0.40;;
68140;SDS011;54941;52.220;104.306;2023-06-26T04:21:17;1.30;;;0.50;;
68140;SDS011;54941;52.220;104.306;2023-06-26T04:23:44;1.50;;;0.45;;
68140;SDS011;54941;52.220;104.306;2023-06-26T04:26:10;2.17;;;0.50;;
68140;SDS011;54941;52.220;104.306;2023-06-26T04:28:36;1.30;;;0.40;;
68140;SDS011;54941;52.220;104.306;2023-06-26T04:31:04;2.75;;;0.50;;
68140;SDS011;54941;52.220;104.306;2023-06-26T04:33:31;1.77;;;0.50;;
68140;SDS011;54941;52.220;104.306;2023-06-26T04:35:57;3.03;;;1.13;;
68140;SDS011;54941;52.220;104.306;2023-06-26T04:38:24;2.22;;;0.90;;
68140;SDS011;54941;52.220;104.306;2023-06-26T04:40:50;2.65;;;0.98;;
68140;SDS011;54941;52.220;104.306;2023-06-26T04:43:16;2.67;;;0.80;;
68140;SDS011;54941;52.220;104.306;2023-06-26T04:45:43;2.90;;;0.70;;
68140;SDS011;54941;52.220;104.306;2023-06-26T04:48:12;1.70;;;0.70;;
68140;SDS011;54941;52.220;104.306;2023-06-26T04:53:05;2.58;;;1.30;;
68140;SDS011;54941;52.220;104.306;2023-06-26T04:55:31;3.15;;;0.82;;
68140;SDS011;54941;52.220;104.306;2023-06-26T04:57:58;1.98;;;0.60;;
68140;SDS011;54941;52.220;104.306;2023-06-26T05:00:24;1.92;;;0.52;;
68140;SDS011;54941;52.220;104.306;2023-06-26T05:02:50;1.48;;;0.60;;
68140;SDS011;54941;52.220;104.306;2023-06-26T05:05:18;1.67;;;0.70;;
68140;SDS011;54941;52.220;104.306;2023-06-26T05:07:45;3.42;;;0.55;;
68140;SDS011;54941;52.220;104.306;2023-06-26T05:10:11;1.80;;;0.70;;
68140;SDS011;54941;52.220;104.306;2023-06-26T05:12:37;3.78;;;0.90;;
68140;SDS011;54941;52.220;104.306;2023-06-26T05:15:04;2.95;;;0.93;;
68140;SDS011;54941;52.220;104.306;2023-06-26T05:17:31;3.15;;;0.80;;
68140;SDS011;54941;52.220;104.306;2023-06-26T05:19:57;5.60;;;0.93;;
68140;SDS011;54941;52.220;104.306;2023-06-26T05:22:25;4.22;;;0.93;;
68140;SDS011;54941;52.220;104.306;2023-06-26T05:24:52;4.28;;;1.30;;
68140;SDS011;54941;52.220;104.306;2023-06-26T05:27:22;4.75;;;1.20;;
68140;SDS011;54941;52.220;104.306;2023-06-26T05:29:49;1.85;;;0.60;;
68140;SDS011;54941;52.220;104.306;2023-06-26T05:32:16;3.25;;;0.75;;
68140;SDS011;54941;52.220;104.306;2023-06-26T05:34:44;2.40;;;0.95;;
68140;SDS011;54941;52.220;104.306;2023-06-26T05:37:12;4.18;;;0.80;;
68140;SDS011;54941;52.220;104.306;2023-06-26T05:39:44;4.95;;;1.00;;
68140;SDS011;54941;52.220;104.306;2023-06-26T05:42:11;2.22;;;1.00;;
68140;SDS011;54941;52.220;104.306;2023-06-26T05:44:38;2.90;;;0.77;;
68140;SDS011;54941;52.220;104.306;2023-06-26T05:47:04;1.70;;;1.00;;
68140;SDS011;54941;52.220;104.306;2023-06-26T05:49:31;3.60;;;1.00;;
68140;SDS011;54941;52.220;104.306;2023-06-26T05:51:57;4.90;;;1.20;;
68140;SDS011;54941;52.220;104.306;2023-06-26T05:54:24;2.97;;;0.60;;
68140;SDS011;54941;52.220;104.306;2023-06-26T05:56:52;2.70;;;0.70;;
68140;SDS011;54941;52.220;104.306;2023-06-26T05:59:23;1.60;;;0.80;;
68140;SDS011;54941;52.220;104.306;2023-06-26T06:01:49;3.70;;;0.70;;
68140;SDS011;54941;52.220;104.306;2023-06-26T06:04:16;2.45;;;0.52;;
68140;SDS011;54941;52.220;104.306;2023-06-26T06:06:42;2.05;;;0.60;;
68140;SDS011;54941;52.220;104.306;2023-06-26T06:09:09;3.40;;;0.60;;
68140;SDS011;54941;52.220;104.306;2023-06-26T06:11:35;3.10;;;0.90;;
68140;SDS011;54941;52.220;104.306;2023-06-26T06:14:03;2.65;;;0.75;;
68140;SDS011;54941;52.220;104.306;2023-06-26T06:16:29;1.50;;;0.70;;
68140;SDS011;54941;52.220;104.306;2023-06-26T06:18:55;4.35;;;0.68;;
68140;SDS011;54941;52.220;104.306;2023-06-26T06:21:22;2.97;;;0.80;;
68140;SDS011;54941;52.220;104.306;2023-06-26T06:23:48;2.60;;;0.88;;
68140;SDS011;54941;52.220;104.306;2023-06-26T06:26:14;2.08;;;1.00;;
68140;SDS011;54941;52.220;104.306;2023-06-26T06:28:41;2.63;;;1.00;;
68140;SDS011;54941;52.220;104.306;2023-06-26T06:31:10;4.28;;;1.38;;
68140;SDS011;54941;52.220;104.306;2023-06-26T06:33:36;3.72;;;0.82;;
68140;SDS011;54941;52.220;104.306;2023-06-26T06:36:02;2.83;;;1.05;;
68140;SDS011;54941;52.220;104.306;2023-06-26T06:38:29;3.00;;;1.00;;
68140;SDS011;54941;52.220;104.306;2023-06-26T06:40:56;2.65;;;1.00;;
68140;SDS011;54941;52.220;104.306;2023-06-26T06:43:22;2.60;;;0.80;;
68140;SDS011;54941;52.220;104.306;2023-06-26T06:45:49;2.22;;;0.80;;
68140;SDS011;54941;52.220;104.306;2023-06-26T06:48:17;2.50;;;0.85;;
68140;SDS011;54941;52.220;104.306;2023-06-26T06:50:43;3.08;;;1.00;;
68140;SDS011;54941;52.220;104.306;2023-06-26T06:53:09;2.67;;;0.90;;
68140;SDS011;54941;52.220;104.306;2023-06-26T06:55:36;3.20;;;1.33;;
68140;SDS011;54941;52.220;104.306;2023-06-26T06:58:02;2.72;;;0.90;;
68140;SDS011;54941;52.220;104.306;2023-06-26T07:00:28;3.65;;;1.13;;
68140;SDS011;54941;52.220;104.306;2023-06-26T07:02:55;3.92;;;1.33;;
68140;SDS011;54941;52.220;104.306;2023-06-26T07:05:23;2.60;;;0.90;;
68140;SDS011;54941;52.220;104.306;2023-06-26T07:07:49;2.10;;;0.93;;
68140;SDS011;54941;52.220;104.306;2023-06-26T07:10:16;3.83;;;0.90;;
68140;SDS011;54941;52.220;104.306;2023-06-26T07:12:42;1.85;;;0.73;;
68140;SDS011;54941;52.220;104.306;2023-06-26T07:15:09;7.70;;;1.05;;
68140;SDS011;54941;52.220;104.306;2023-06-26T07:17:36;3.33;;;1.20;;
68140;SDS011;54941;52.220;104.306;2023-06-26T07:20:02;2.25;;;0.77;;
68140;SDS011;54941;52.220;104.306;2023-06-26T07:22:31;4.28;;;0.80;;
68140;SDS011;54941;52.220;104.306;2023-06-26T07:24:57;1.77;;;0.70;;
68140;SDS011;54941;52.220;104.306;2023-06-26T07:27:23;2.75;;;0.70;;
68140;SDS011;54941;52.220;104.306;2023-06-26T07:29:50;1.52;;;0.70;;
68140;SDS011;54941;52.220;104.306;2023-06-26T07:32:16;2.80;;;1.05;;
68140;SDS011;54941;52.220;104.306;2023-06-26T07:34:42;3.10;;;0.80;;
68140;SDS011;54941;52.220;104.306;2023-06-26T07:37:09;3.13;;;1.13;;
68140;SDS011;54941;52.220;104.306;2023-06-26T07:39:37;2.70;;;1.27;;
68140;SDS011;54941;52.220;104.306;2023-06-26T07:42:04;2.45;;;1.10;;
68140;SDS011;54941;52.220;104.306;2023-06-26T07:44:30;1.40;;;0.65;;
68140;SDS011;54941;52.220;104.306;2023-06-26T07:46:56;2.08;;;0.85;;
68140;SDS011;54941;52.220;104.306;2023-06-26T07:49:23;2.10;;;0.90;;
68140;SDS011;54941;52.220;104.306;2023-06-26T07:51:50;2.58;;;1.00;;
68140;SDS011;54941;52.220;104.306;2023-06-26T07:54:16;2.90;;;1.00;;
68140;SDS011;54941;52.220;104.306;2023-06-26T07:56:56;7.28;;;0.90;;
68140;SDS011;54941;52.220;104.306;2023-06-26T07:59:24;2.15;;;0.95;;
68140;SDS011;54941;52.220;104.306;2023-06-26T08:01:52;4.72;;;1.10;;
68140;SDS011;54941;52.220;104.306;2023-06-26T08:04:19;2.30;;;0.80;;
68140;SDS011;54941;52.220;104.306;2023-06-26T08:06:47;3.22;;;1.00;;
68140;SDS011;54941;52.220;104.306;2023-06-26T08:09:14;3.47;;;0.90;;
68140;SDS011;54941;52.220;104.306;2023-06-26T08:11:41;4.53;;;0.98;;
68140;SDS011;54941;52.220;104.306;2023-06-26T08:14:09;4.47;;;1.05;;
68140;SDS011;54941;52.220;104.306;2023-06-26T08:16:35;3.13;;;1.00;;
68140;SDS011;54941;52.220;104.306;2023-06-26T08:19:02;3.05;;;0.85;;
68140;SDS011;54941;52.220;104.306;2023-06-26T08:21:29;2.90;;;0.85;;
68140;SDS011;54941;52.220;104.306;2023-06-26T08:23:56;3.17;;;0.82;;
68140;SDS011;54941;52.220;104.306;2023-06-26T08:26:22;1.73;;;0.75;;
68140;SDS011;54941;52.220;104.306;2023-06-26T08:28:49;1.65;;;0.70;;
68140;SDS011;54941;52.220;104.306;2023-06-26T08:31:17;2.80;;;1.10;;
68140;SDS011;54941;52.220;104.306;2023-06-26T08:33:45;2.28;;;0.82;;
68140;SDS011;54941;52.220;104.306;2023-06-26T08:36:12;2.17;;;0.70;;
68140;SDS011;54941;52.220;104.306;2023-06-26T08:38:38;4.50;;;1.10;;
68140;SDS011;54941;52.220;104.306;2023-06-26T08:41:05;2.78;;;0.75;;
68140;SDS011;54941;52.220;104.306;2023-06-26T08:43:32;1.98;;;0.60;;
68140;SDS011;54941;52.220;104.306;2023-06-26T08:45:58;5.00;;;1.08;;
68140;SDS011;54941;52.220;104.306;2023-06-26T08:48:26;2.75;;;1.25;;
68140;SDS011;54941;52.220;104.306;2023-06-26T08:50:57;3.20;;;0.68;;
68140;SDS011;54941;52.220;104.306;2023-06-26T08:53:27;2.20;;;0.70;;
68140;SDS011;54941;52.220;104.306;2023-06-26T08:55:58;3.13;;;0.90;;
68140;SDS011;54941;52.220;104.306;2023-06-26T08:58:26;2.83;;;0.80;;
68140;SDS011;54941;52.220;104.306;2023-06-26T09:00:52;2.50;;;0.80;;
68140;SDS011;54941;52.220;104.306;2023-06-26T09:03:19;3.58;;;1.27;;
68140;SDS011;54941;52.220;104.306;2023-06-26T09:05:47;2.67;;;1.10;;
68140;SDS011;54941;52.220;104.306;2023-06-26T09:08:13;3.50;;;1.30;;
68140;SDS011;54941;52.220;104.306;2023-06-26T09:10:40;4.20;;;1.33;;
68140;SDS011;54941;52.220;104.306;2023-06-26T09:13:06;4.28;;;1.60;;
68140;SDS011;54941;52.220;104.306;2023-06-26T09:15:36;5.47;;;1.58;;
68140;SDS011;54941;52.220;104.306;2023-06-26T09:18:04;5.50;;;1.80;;
68140;SDS011;54941;52.220;104.306;2023-06-26T09:20:30;6.38;;;2.20;;
68140;SDS011;54941;52.220;104.306;2023-06-26T09:22:58;6.03;;;2.40;;
68140;SDS011;54941;52.220;104.306;2023-06-26T09:25:25;4.50;;;2.20;;
68140;SDS011;54941;52.220;104.306;2023-06-26T09:27:52;4.22;;;2.30;;
68140;SDS011;54941;52.220;104.306;2023-06-26T09:30:18;5.70;;;2.33;;
68140;SDS011;54941;52.220;104.306;2023-06-26T09:32:46;6.00;;;2.10;;
68140;SDS011;54941;52.220;104.306;2023-06-26T09:35:12;3.97;;;1.98;;
68140;SDS011;54941;52.220;104.306;2023-06-26T09:37:39;5.78;;;2.47;;
68140;SDS011;54941;52.220;104.306;2023-06-26T09:40:07;6.25;;;2.40;;
68140;SDS011;54941;52.220;104.306;2023-06-26T09:42:34;4.60;;;2.42;;
68140;SDS011;54941;52.220;104.306;2023-06-26T09:45:01;11.82;;;3.30;;
68140;SDS011;54941;52.220;104.306;2023-06-26T09:47:31;4.90;;;2.67;;
68140;SDS011;54941;52.220;104.306;2023-06-26T09:50:00;8.48;;;3.60;;
68140;SDS011;54941;52.220;104.306;2023-06-26T09:52:30;7.43;;;3.10;;
68140;SDS011;54941;52.220;104.306;2023-06-26T09:57:44;6.35;;;2.47;;
68140;SDS011;54941;52.220;104.306;2023-06-26T10:00:13;7.68;;;2.13;;
68140;SDS011;54941;52.220;104.306;2023-06-26T10:02:40;6.88;;;2.10;;
68140;SDS011;54941;52.220;104.306;2023-06-26T10:05:06;6.05;;;2.03;;
68140;SDS011;54941;52.220;104.306;2023-06-26T10:07:33;6.47;;;2.08;;
68140;SDS011;54941;52.220;104.306;2023-06-26T10:10:01;8.27;;;2.40;;
68140;SDS011;54941;52.220;104.306;2023-06-26T10:12:31;6.15;;;2.70;;
68140;SDS011;54941;52.220;104.306;2023-06-26T10:14:58;5.63;;;2.35;;
68140;SDS011;54941;52.220;104.306;2023-06-26T10:17:34;7.13;;;2.17;;
68140;SDS011;54941;52.220;104.306;2023-06-26T10:20:03;6.72;;;2.38;;
68140;SDS011;54941;52.220;104.306;2023-06-26T10:22:34;5.07;;;1.92;;
68140;SDS011;54941;52.220;104.306;2023-06-26T10:27:36;7.10;;;2.10;;
68140;SDS011;54941;52.220;104.306;2023-06-26T10:30:09;4.93;;;1.92;;
68140;SDS011;54941;52.220;104.306;2023-06-26T10:32:39;4.95;;;2.20;;
68140;SDS011;54941;52.220;104.306;2023-06-26T10:35:06;7.88;;;2.25;;
68140;SDS011;54941;52.220;104.306;2023-06-26T10:37:43;6.07;;;2.53;;
68140;SDS011;54941;52.220;104.306;2023-06-26T10:40:10;8.18;;;2.53;;
68140;SDS011;54941;52.220;104.306;2023-06-26T10:42:39;9.88;;;2.63;;
68140;SDS011;54941;52.220;104.306;2023-06-26T10:45:09;6.82;;;1.80;;
68140;SDS011;54941;52.220;104.306;2023-06-26T10:47:36;6.10;;;2.17;;
68140;SDS011;54941;52.220;104.306;2023-06-26T10:50:18;5.90;;;1.58;;
68140;SDS011;54941;52.220;104.306;2023-06-26T10:52:46;5.03;;;1.63;;
68140;SDS011;54941;52.220;104.306;2023-06-26T10:55:35;6.85;;;1.73;;
68140;SDS011;54941;52.220;104.306;2023-06-26T10:58:03;4.63;;;1.35;;
68140;SDS011;54941;52.220;104.306;2023-06-26T11:00:30;4.82;;;1.40;;
68140;SDS011;54941;52.220;104.306;2023-06-26T11:02:56;3.30;;;1.52;;
68140;SDS011;54941;52.220;104.306;2023-06-26T11:05:26;4.35;;;1.20;;
68140;SDS011;54941;52.220;104.306;2023-06-26T11:08:03;4.35;;;1.33;;
68140;SDS011;54941;52.220;104.306;2023-06-26T11:10:30;8.15;;;1.80;;
68140;SDS011;54941;52.220;104.306;2023-06-26T11:13:16;4.07;;;1.27;;
68140;SDS011;54941;52.220;104.306;2023-06-26T11:15:43;5.32;;;1.55;;
68140;SDS011;54941;52.220;104.306;2023-06-26T11:18:09;3.28;;;1.20;;
68140;SDS011;54941;52.220;104.306;2023-06-26T11:20:36;3.67;;;1.42;;
68140;SDS011;54941;52.220;104.306;2023-06-26T11:23:02;4.47;;;1.38;;
68140;SDS011;54941;52.220;104.306;2023-06-26T11:25:30;2.95;;;1.00;;
68140;SDS011;54941;52.220;104.306;2023-06-26T11:27:59;2.05;;;0.90;;
68140;SDS011;54941;52.220;104.306;2023-06-26T11:30:27;2.97;;;0.90;;
68140;SDS011;54941;52.220;104.306;2023-06-26T11:33:01;4.18;;;0.80;;
68140;SDS011;54941;52.220;104.306;2023-06-26T11:37:55;3.33;;;0.90;;
68140;SDS011;54941;52.220;104.306;2023-06-26T11:40:22;2.25;;;0.80;;
68140;SDS011;54941;52.220;104.306;2023-06-26T11:42:49;2.30;;;0.93;;
68140;SDS011;54941;52.220;104.306;2023-06-26T11:45:15;3.55;;;1.10;;
68140;SDS011;54941;52.220;104.306;2023-06-26T11:47:43;2.33;;;0.88;;
68140;SDS011;54941;52.220;104.306;2023-06-26T11:50:14;2.55;;;0.82;;
68140;SDS011;54941;52.220;104.306;2023-06-26T11:52:41;2.22;;;0.82;;
68140;SDS011;54941;52.220;104.306;2023-06-26T11:55:08;1.73;;;0.80;;
68140;SDS011;54941;52.220;104.306;2023-06-26T11:57:34;2.90;;;1.20;;
68140;SDS011;54941;52.220;104.306;2023-06-26T12:00:10;3.65;;;1.10;;
68140;SDS011;54941;52.220;104.306;2023-06-26T12:02:37;3.35;;;0.85;;
68140;SDS011;54941;52.220;104.306;2023-06-26T12:05:06;3.47;;;0.90;;
68140;SDS011;54941;52.220;104.306;2023-06-26T12:07:33;2.78;;;0.93;;
68140;SDS011;54941;52.220;104.306;2023-06-26T12:10:00;2.75;;;1.20;;
68140;SDS011;54941;52.220;104.306;2023-06-26T12:12:27;4.80;;;1.20;;
68140;SDS011;54941;52.220;104.306;2023-06-26T12:14:54;2.42;;;0.98;;
68140;SDS011;54941;52.220;104.306;2023-06-26T12:17:22;2.75;;;1.20;;
68140;SDS011;54941;52.220;104.306;2023-06-26T12:19:49;2.60;;;1.00;;
68140;SDS011;54941;52.220;104.306;2023-06-26T12:22:17;5.05;;;1.00;;
68140;SDS011;54941;52.220;104.306;2023-06-26T12:24:45;4.90;;;1.50;;
68140;SDS011;54941;52.220;104.306;2023-06-26T12:27:12;5.03;;;1.88;;
68140;SDS011;54941;52.220;104.306;2023-06-26T12:29:40;7.53;;;2.22;;
68140;SDS011;54941;52.220;104.306;2023-06-26T12:34:40;5.40;;;1.73;;
68140;SDS011;54941;52.220;104.306;2023-06-26T12:37:07;5.82;;;2.72;;
68140;SDS011;54941;52.220;104.306;2023-06-26T12:39:48;4.22;;;2.38;;
68140;SDS011;54941;52.220;104.306;2023-06-26T12:42:16;5.35;;;2.78;;
68140;SDS011;54941;52.220;104.306;2023-06-26T12:44:43;6.05;;;2.50;;
68140;SDS011;54941;52.220;104.306;2023-06-26T12:47:09;5.80;;;1.75;;
68140;SDS011;54941;52.220;104.306;2023-06-26T12:49:36;5.93;;;1.88;;
68140;SDS011;54941;52.220;104.306;2023-06-26T12:52:04;4.88;;;1.60;;
68140;SDS011;54941;52.220;104.306;2023-06-26T12:54:33;3.63;;;1.60;;
68140;SDS011;54941;52.220;104.306;2023-06-26T12:57:02;5.85;;;2.20;;
68140;SDS011;54941;52.220;104.306;2023-06-26T12:59:29;3.05;;;1.20;;
68140;SDS011;54941;52.220;104.306;2023-06-26T13:01:55;5.47;;;1.73;;
68140;SDS011;54941;52.220;104.306;2023-06-26T13:04:23;3.35;;;1.60;;
68140;SDS011;54941;52.220;104.306;2023-06-26T13:06:49;5.45;;;1.33;;
68140;SDS011;54941;52.220;104.306;2023-06-26T13:09:16;3.60;;;1.40;;
68140;SDS011;54941;52.220;104.306;2023-06-26T13:11:43;4.88;;;1.73;;
68140;SDS011;54941;52.220;104.306;2023-06-26T13:14:11;4.32;;;1.83;;
68140;SDS011;54941;52.220;104.306;2023-06-26T13:16:37;6.50;;;2.10;;
68140;SDS011;54941;52.220;104.306;2023-06-26T13:19:04;8.48;;;1.83;;
68140;SDS011;54941;52.220;104.306;2023-06-26T13:21:31;6.18;;;2.00;;
68140;SDS011;54941;52.220;104.306;2023-06-26T13:23:58;4.53;;;1.70;;
68140;SDS011;54941;52.220;104.306;2023-06-26T13:26:25;7.30;;;1.42;;
68140;SDS011;54941;52.220;104.306;2023-06-26T13:28:52;7.25;;;2.78;;
68140;SDS011;54941;52.220;104.306;2023-06-26T13:31:19;2.78;;;1.30;;
68140;SDS011;54941;52.220;104.306;2023-06-26T13:33:46;7.65;;;1.90;;
68140;SDS011;54941;52.220;104.306;2023-06-26T13:36:12;3.38;;;1.38;;
68140;SDS011;54941;52.220;104.306;2023-06-26T13:38:39;3.30;;;1.20;;
68140;SDS011;54941;52.220;104.306;2023-06-26T13:41:05;3.20;;;1.13;;
68140;SDS011;54941;52.220;104.306;2023-06-26T13:43:32;2.60;;;1.00;;
68140;SDS011;54941;52.220;104.306;2023-06-26T13:45:58;2.65;;;0.90;;
68140;SDS011;54941;52.220;104.306;2023-06-26T13:48:26;2.17;;;0.80;;
68140;SDS011;54941;52.220;104.306;2023-06-26T13:50:52;1.65;;;0.80;;
68140;SDS011;54941;52.220;104.306;2023-06-26T13:53:19;2.67;;;1.10;;
68140;SDS011;54941;52.220;104.306;2023-06-26T13:55:45;2.75;;;0.70;;
68140;SDS011;54941;52.220;104.306;2023-06-26T13:58:12;3.05;;;0.90;;
68140;SDS011;54941;52.220;104.306;2023-06-26T14:00:39;3.65;;;0.93;;
68140;SDS011;54941;52.220;104.306;2023-06-26T14:03:06;1.60;;;0.77;;
68140;SDS011;54941;52.220;104.306;2023-06-26T14:05:35;1.65;;;0.80;;
68140;SDS011;54941;52.220;104.306;2023-06-26T14:10:31;3.15;;;1.00;;
68140;SDS011;54941;52.220;104.306;2023-06-26T14:12:57;2.78;;;0.80;;
68140;SDS011;54941;52.220;104.306;2023-06-26T14:15:23;2.55;;;0.90;;
68140;SDS011;54941;52.220;104.306;2023-06-26T14:17:50;3.03;;;0.70;;
68140;SDS011;54941;52.220;104.306;2023-06-26T14:20:16;2.40;;;0.82;;
68140;SDS011;54941;52.220;104.306;2023-06-26T14:22:44;1.73;;;0.82;;
68140;SDS011;54941;52.220;104.306;2023-06-26T14:25:11;1.85;;;0.90;;
68140;SDS011;54941;52.220;104.306;2023-06-26T14:27:38;3.15;;;1.05;;
68140;SDS011;54941;52.220;104.306;2023-06-26T14:30:04;3.92;;;0.90;;
68140;SDS011;54941;52.220;104.306;2023-06-26T14:32:33;2.70;;;1.00;;
68140;SDS011;54941;52.220;104.306;2023-06-26T14:35:01;2.25;;;1.00;;
68140;SDS011;54941;52.220;104.306;2023-06-26T14:37:32;2.20;;;0.90;;
68140;SDS011;54941;52.220;104.306;2023-06-26T14:40:00;2.80;;;1.48;;